createdAt,value
2017-11-19T00:02:13.173Z,3.20
2017-11-19T00:04:46.912Z,3.20
2017-11-19T00:07:20.498Z,3.20
2017-11-19T00:09:54.138Z,3.30
2017-11-19T00:12:28.689Z,3.20
2017-11-19T00:15:02.432Z,3.20
2017-11-19T00:17:35.998Z,3.30
2017-11-19T00:20:09.750Z,3.40
2017-11-19T00:22:43.531Z,3.40
2017-11-19T00:25:17.238Z,3.30
2017-11-19T00:27:51.164Z,3.30
2017-11-19T00:30:24.915Z,3.30
2017-11-19T00:32:58.719Z,3.40
2017-11-19T00:35:32.498Z,3.40
2017-11-19T00:38:06.264Z,3.40
2017-11-19T00:40:40.043Z,3.40
2017-11-19T00:43:14.456Z,3.40
2017-11-19T00:45:48.975Z,3.40
2017-11-19T00:48:23.374Z,3.50
2017-11-19T00:50:57.921Z,3.60
2017-11-19T00:53:31.662Z,3.60
2017-11-19T00:56:05.391Z,3.80
2017-11-19T00:58:39.960Z,3.80
2017-11-19T01:01:13.992Z,3.90
2017-11-19T01:03:49.212Z,3.90
2017-11-19T01:06:22.834Z,3.90
2017-11-19T01:08:56.519Z,4.00
2017-11-19T01:11:30.260Z,4.10
2017-11-19T01:14:04.065Z,4.10
2017-11-19T01:16:37.758Z,4.20
2017-11-19T01:19:11.528Z,4.20
2017-11-19T01:21:46.026Z,4.40
2017-11-19T01:24:20.364Z,4.30
2017-11-19T01:26:54.041Z,4.30
2017-11-19T01:29:27.814Z,4.40
2017-11-19T01:32:01.499Z,4.40
2017-11-19T01:34:35.210Z,4.40
2017-11-19T01:37:10.254Z,4.30
2017-11-19T01:39:43.894Z,4.30
2017-11-19T01:42:17.610Z,4.30
2017-11-19T01:44:51.362Z,4.20
2017-11-19T01:47:25.034Z,4.20
2017-11-19T01:49:58.866Z,4.20
2017-11-19T01:52:33.235Z,4.20
2017-11-19T01:55:06.951Z,4.20
2017-11-19T01:57:40.706Z,4.10
2017-11-19T02:00:14.419Z,4.20
2017-11-19T02:02:48.014Z,4.10
2017-11-19T02:05:22.489Z,4.10
2017-11-19T02:07:56.997Z,4.10
2017-11-19T02:10:30.733Z,4.10
2017-11-19T02:13:04.540Z,4.00
2017-11-19T02:15:38.297Z,4.00
2017-11-19T02:18:12.067Z,4.00
2017-11-19T02:20:45.851Z,4.00
2017-11-19T02:23:19.566Z,4.10
2017-11-19T02:25:53.350Z,4.00
2017-11-19T02:28:27.099Z,4.10
2017-11-19T02:31:01.445Z,4.10
2017-11-19T02:33:35.041Z,4.00
2017-11-19T02:36:08.801Z,3.90
2017-11-19T02:38:43.474Z,4.00
2017-11-19T02:41:17.073Z,4.00
2017-11-19T02:43:50.819Z,4.00
2017-11-19T02:46:24.522Z,4.00
2017-11-19T02:48:58.226Z,4.00
2017-11-19T02:51:31.791Z,4.00
2017-11-19T02:54:05.529Z,4.10
2017-11-19T02:56:39.090Z,4.00
2017-11-19T02:59:12.846Z,4.10
2017-11-19T03:01:46.639Z,4.20
2017-11-19T03:04:20.281Z,4.20
2017-11-19T03:06:54.063Z,4.30
2017-11-19T03:09:27.725Z,4.30
2017-11-19T03:12:01.453Z,4.30
2017-11-19T03:14:35.231Z,4.30
2017-11-19T03:17:08.923Z,4.50
2017-11-19T03:19:42.684Z,4.50
2017-11-19T03:22:17.168Z,4.50
2017-11-19T03:24:50.797Z,4.50
2017-11-19T03:27:24.468Z,4.60
2017-11-19T03:29:58.962Z,4.60
2017-11-19T03:32:33.409Z,4.60
2017-11-19T03:35:07.266Z,4.60
2017-11-19T03:37:40.910Z,4.60
2017-11-19T03:40:15.225Z,4.60
2017-11-19T03:42:48.838Z,4.60
2017-11-19T03:45:22.689Z,4.50
2017-11-19T03:47:56.448Z,4.40
2017-11-19T03:50:30.989Z,4.40
2017-11-19T03:53:04.720Z,4.40
2017-11-19T03:55:39.008Z,4.30
2017-11-19T03:58:12.762Z,4.30
2017-11-19T04:00:46.622Z,4.30
2017-11-19T04:03:21.145Z,4.40
2017-11-19T04:05:54.848Z,4.40
2017-11-19T04:08:28.554Z,4.40
2017-11-19T04:11:02.314Z,4.40
2017-11-19T04:13:36.038Z,4.40
2017-11-19T04:16:09.678Z,4.40
2017-11-19T04:18:43.454Z,4.40
2017-11-19T04:21:17.717Z,4.50
2017-11-19T04:23:51.439Z,4.50
2017-11-19T04:26:25.192Z,4.40
2017-11-19T04:28:58.902Z,4.40
2017-11-19T04:31:33.417Z,4.40
2017-11-19T04:34:07.170Z,4.40
2017-11-19T04:36:40.895Z,4.50
2017-11-19T04:39:14.771Z,4.40
2017-11-19T04:41:48.473Z,4.40
2017-11-19T04:44:22.137Z,4.40
2017-11-19T04:46:55.841Z,4.40
2017-11-19T04:49:29.479Z,4.50
2017-11-19T04:52:03.187Z,4.50
2017-11-19T04:54:36.959Z,4.50
2017-11-19T04:57:10.761Z,4.50
2017-11-19T04:59:44.332Z,4.50
2017-11-19T05:02:18.071Z,4.60
2017-11-19T05:04:51.814Z,4.60
2017-11-19T05:07:25.545Z,4.50
2017-11-19T05:09:59.117Z,4.60
2017-11-19T05:12:32.877Z,4.40
2017-11-19T05:15:06.493Z,4.30
2017-11-19T05:17:40.990Z,4.00
2017-11-19T05:20:14.610Z,4.00
2017-11-19T05:22:48.389Z,3.90
2017-11-19T05:25:22.120Z,3.90
2017-11-19T05:27:55.916Z,3.80
2017-11-19T05:30:29.662Z,3.80
2017-11-19T05:33:03.238Z,3.80
2017-11-19T05:35:36.956Z,3.90
2017-11-19T05:38:10.525Z,3.80
2017-11-19T05:40:44.268Z,3.80
2017-11-19T05:43:18.063Z,3.70
2017-11-19T05:45:51.842Z,3.70
2017-11-19T05:48:26.342Z,3.70
2017-11-19T05:51:01.119Z,3.70
2017-11-19T05:53:34.764Z,3.70
2017-11-19T05:56:09.364Z,3.70
2017-11-19T05:58:43.503Z,3.70
2017-11-19T06:01:18.718Z,3.70
2017-11-19T06:03:52.522Z,3.70
2017-11-19T06:06:27.718Z,3.70
2017-11-19T06:09:01.555Z,3.80
2017-11-19T06:11:35.131Z,3.80
2017-11-19T06:14:08.871Z,3.80
2017-11-19T06:16:42.607Z,3.90
2017-11-19T06:19:16.351Z,4.00
2017-11-19T06:21:51.115Z,3.90
2017-11-19T06:24:25.044Z,3.90
2017-11-19T06:26:58.990Z,4.00
2017-11-19T06:29:32.621Z,4.00
2017-11-19T06:32:06.300Z,4.00
2017-11-19T06:34:40.113Z,4.00
2017-11-19T06:37:14.362Z,4.00
2017-11-19T06:39:48.118Z,4.00
2017-11-19T06:42:21.660Z,4.00
2017-11-19T06:44:55.457Z,3.90
2017-11-19T06:47:29.260Z,4.00
2017-11-19T06:50:02.882Z,4.00
2017-11-19T06:52:36.630Z,4.10
2017-11-19T06:55:10.390Z,4.10
2017-11-19T06:57:44.135Z,4.20
2017-11-19T07:00:17.872Z,4.20
2017-11-19T07:02:51.763Z,4.30
2017-11-19T07:05:25.559Z,4.30
2017-11-19T07:08:00.086Z,4.30
2017-11-19T07:10:33.842Z,4.30
2017-11-19T07:13:08.292Z,4.30
2017-11-19T07:15:41.932Z,4.30
2017-11-19T07:18:16.741Z,4.30
2017-11-19T07:20:50.499Z,4.30
2017-11-19T07:23:24.203Z,4.30
2017-11-19T07:25:57.966Z,4.30
2017-11-19T07:28:31.715Z,4.40
2017-11-19T07:31:05.466Z,4.40
2017-11-19T07:33:39.142Z,4.50
2017-11-19T07:36:12.769Z,4.50
2017-11-19T07:38:46.369Z,4.60
2017-11-19T07:41:20.092Z,4.50
2017-11-19T07:43:53.820Z,4.50
2017-11-19T07:46:27.386Z,4.50
2017-11-19T07:49:03.632Z,4.60
2017-11-19T07:51:37.353Z,4.70
2017-11-19T07:54:11.062Z,4.90
2017-11-19T07:56:44.800Z,4.80
2017-11-19T07:59:18.500Z,4.80
2017-11-19T08:01:53.167Z,4.80
2017-11-19T08:04:41.752Z,4.80
2017-11-19T08:07:16.259Z,4.70
2017-11-19T08:09:50.033Z,4.70
2017-11-19T08:12:23.631Z,4.70
2017-11-19T08:14:58.154Z,4.70
2017-11-19T08:17:31.895Z,4.70
2017-11-19T08:20:06.396Z,4.90
2017-11-19T08:22:40.121Z,4.90
2017-11-19T08:25:13.824Z,5.00
2017-11-19T08:27:48.326Z,5.00
2017-11-19T08:30:22.370Z,5.00
2017-11-19T08:32:56.203Z,4.90
2017-11-19T08:35:30.662Z,4.80
2017-11-19T08:38:04.298Z,4.80
2017-11-19T08:40:39.066Z,4.80
2017-11-19T08:43:12.667Z,4.80
2017-11-19T08:45:46.363Z,4.80
2017-11-19T08:48:20.113Z,4.80
2017-11-19T08:50:53.941Z,4.90
2017-11-19T08:53:27.627Z,5.00
2017-11-19T08:56:01.330Z,5.10
2017-11-19T08:58:35.133Z,5.20
2017-11-19T09:01:08.732Z,5.30
2017-11-19T09:03:43.635Z,5.40
2017-11-19T09:06:17.347Z,5.50
2017-11-19T09:08:51.811Z,5.10
2017-11-19T09:11:26.569Z,5.10
2017-11-19T09:14:01.833Z,4.90
2017-11-19T09:16:36.396Z,4.80
2017-11-19T09:19:09.980Z,4.80
2017-11-19T09:21:43.637Z,4.80
2017-11-19T09:24:18.159Z,4.80
2017-11-19T09:26:51.771Z,4.90
2017-11-19T09:29:26.796Z,5.00
2017-11-19T09:32:00.509Z,5.00
2017-11-19T09:34:35.432Z,5.10
2017-11-19T09:37:09.179Z,5.10
2017-11-19T09:39:44.442Z,5.20
2017-11-19T09:42:18.143Z,5.20
2017-11-19T09:44:52.760Z,5.30
2017-11-19T09:47:26.374Z,5.30
2017-11-19T09:50:00.871Z,5.30
2017-11-19T09:52:34.626Z,5.30
2017-11-19T09:55:09.219Z,5.40
2017-11-19T09:57:42.836Z,5.50
2017-11-19T10:00:16.378Z,5.70
2017-11-19T10:02:50.117Z,5.80
2017-11-19T10:05:23.991Z,5.60
2017-11-19T10:07:57.823Z,5.20
2017-11-19T10:10:31.597Z,5.00
2017-11-19T10:13:05.367Z,5.00
2017-11-19T10:15:40.733Z,5.00
2017-11-19T10:18:14.280Z,5.10
2017-11-19T10:20:48.007Z,5.20
2017-11-19T10:23:22.711Z,5.20
2017-11-19T10:25:56.582Z,5.20
2017-11-19T10:28:31.305Z,5.20
2017-11-19T10:31:05.044Z,5.40
2017-11-19T10:33:38.892Z,5.60
2017-11-19T10:36:13.449Z,5.90
2017-11-19T10:38:47.836Z,5.80
2017-11-19T10:41:21.662Z,5.90
2017-11-19T10:43:56.199Z,6.00
2017-11-19T10:46:32.035Z,6.20
2017-11-19T10:49:05.811Z,6.20
2017-11-19T10:51:39.617Z,6.30
2017-11-19T10:54:13.343Z,6.50
2017-11-19T10:56:47.023Z,6.50
2017-11-19T10:59:22.613Z,6.40
2017-11-19T11:01:56.680Z,6.40
2017-11-19T11:04:30.360Z,6.40
2017-11-19T11:07:04.122Z,6.50
2017-11-19T11:09:39.799Z,6.50
2017-11-19T11:12:14.536Z,6.60
2017-11-19T11:14:48.555Z,6.60
2017-11-19T11:17:22.259Z,6.60
2017-11-19T11:19:56.192Z,6.50
2017-11-19T11:22:30.601Z,6.40
2017-11-19T11:25:04.442Z,6.40
2017-11-19T11:27:38.982Z,6.50
2017-11-19T11:30:12.760Z,6.60
2017-11-19T11:32:52.648Z,6.60
2017-11-19T11:35:27.038Z,6.50
2017-11-19T11:38:02.498Z,6.60
2017-11-19T11:40:36.304Z,6.60
2017-11-19T11:43:09.971Z,6.80
2017-11-19T11:45:45.341Z,7.00
2017-11-19T11:48:21.018Z,7.00
2017-11-19T11:50:55.354Z,7.10
2017-11-19T11:53:30.078Z,7.20
2017-11-19T11:56:03.749Z,7.30
2017-11-19T11:58:38.371Z,7.50
2017-11-19T12:01:12.026Z,7.60
2017-11-19T12:03:46.770Z,7.60
2017-11-19T12:06:21.136Z,7.60
2017-11-19T12:08:54.920Z,7.70
2017-11-19T12:11:30.551Z,7.60
2017-11-19T12:14:04.580Z,7.50
2017-11-19T12:16:38.390Z,7.40
2017-11-19T12:19:12.101Z,7.40
2017-11-19T12:21:45.903Z,7.40
2017-11-19T12:24:19.622Z,7.30
2017-11-19T12:26:53.319Z,7.20
2017-11-19T12:29:27.018Z,7.20
2017-11-19T12:32:00.767Z,7.10
2017-11-19T12:34:34.617Z,7.00
2017-11-19T12:37:09.263Z,6.90
2017-11-19T12:39:42.831Z,6.70
2017-11-19T12:42:16.534Z,6.70
2017-11-19T12:44:51.304Z,6.70
2017-11-19T12:47:25.102Z,6.60
2017-11-19T12:49:59.872Z,6.60
2017-11-19T12:52:33.566Z,6.50
2017-11-19T12:55:08.239Z,6.50
2017-11-19T12:57:41.984Z,6.30
2017-11-19T13:00:15.962Z,5.60
2017-11-19T13:02:50.946Z,5.40
2017-11-19T13:05:25.041Z,5.40
2017-11-19T13:07:58.929Z,5.30
2017-11-19T13:10:32.757Z,5.30
2017-11-19T13:13:07.544Z,5.10
2017-11-19T13:15:42.149Z,5.10
2017-11-19T13:18:16.046Z,5.10
2017-11-19T13:20:49.750Z,5.10
2017-11-19T13:23:23.794Z,5.10
2017-11-19T13:25:57.664Z,5.10
2017-11-19T13:28:32.940Z,5.20
2017-11-19T13:31:08.050Z,5.80
2017-11-19T13:33:43.769Z,5.70
2017-11-19T13:36:20.648Z,5.70
2017-11-19T13:38:58.482Z,5.80
2017-11-19T13:41:36.367Z,6.10
2017-11-19T13:44:12.402Z,6.30
2017-11-19T13:46:48.707Z,7.10
2017-11-19T13:49:22.363Z,7.80
2017-11-19T13:51:56.125Z,8.00
2017-11-19T13:54:29.918Z,8.40
2017-11-19T13:57:04.383Z,8.00
2017-11-19T13:59:38.218Z,8.00
2017-11-19T14:02:12.593Z,8.20
2017-11-19T14:04:46.469Z,8.10
2017-11-19T14:07:20.132Z,7.50
2017-11-19T14:09:53.859Z,7.20
2017-11-19T14:12:27.608Z,6.70
2017-11-19T14:15:02.329Z,6.30
2017-11-19T14:17:36.821Z,6.00
2017-11-19T14:20:11.229Z,6.10
2017-11-19T14:22:45.604Z,6.70
2017-11-19T14:25:19.338Z,6.60
2017-11-19T14:27:54.112Z,7.10
2017-11-19T14:30:27.860Z,6.70
2017-11-19T14:33:01.574Z,6.40
2017-11-19T14:35:35.340Z,6.30
2017-11-19T14:38:09.049Z,6.30
2017-11-19T14:40:42.798Z,6.20
2017-11-19T14:43:16.509Z,6.20
2017-11-19T14:45:50.264Z,6.20
2017-11-19T14:48:24.964Z,6.20
2017-11-19T14:51:01.275Z,6.30
2017-11-19T14:53:35.803Z,6.30
2017-11-19T14:56:09.829Z,6.30
2017-11-19T14:58:43.502Z,6.40
2017-11-19T15:01:17.274Z,6.30
2017-11-19T15:03:50.974Z,6.30
2017-11-19T15:06:24.577Z,6.20
2017-11-19T15:08:59.209Z,6.30
2017-11-19T15:11:32.971Z,6.30
2017-11-19T15:14:06.728Z,6.30
2017-11-19T15:16:40.466Z,6.30
2017-11-19T15:19:14.224Z,6.30
2017-11-19T15:21:48.693Z,6.30
2017-11-19T15:24:22.360Z,6.30
2017-11-19T15:26:56.215Z,6.30
2017-11-19T15:29:29.977Z,6.40
2017-11-19T15:32:03.737Z,6.40
2017-11-19T15:34:37.500Z,6.40
2017-11-19T15:37:13.246Z,6.40
2017-11-19T15:39:47.766Z,6.40
2017-11-19T15:42:21.412Z,6.40
2017-11-19T15:44:55.892Z,6.40
2017-11-19T15:47:29.600Z,6.40
2017-11-19T15:50:03.335Z,6.40
2017-11-19T15:52:37.067Z,6.40
2017-11-19T15:55:10.861Z,6.30
2017-11-19T15:57:47.551Z,6.30
2017-11-19T16:00:23.163Z,6.30
2017-11-19T16:02:56.791Z,6.20
2017-11-19T16:05:30.842Z,6.20
2017-11-19T16:08:04.555Z,6.20
2017-11-19T16:10:39.882Z,6.20
2017-11-19T16:13:13.579Z,6.10
2017-11-19T16:15:47.438Z,6.20
2017-11-19T16:18:21.181Z,6.20
2017-11-19T16:20:54.925Z,6.20
2017-11-19T16:23:28.730Z,6.30
2017-11-19T16:26:03.029Z,6.20
2017-11-19T16:28:38.916Z,6.20
2017-11-19T16:31:12.935Z,6.30
2017-11-19T16:33:49.721Z,6.30
2017-11-19T16:36:23.605Z,6.30
2017-11-19T16:38:57.365Z,6.30
2017-11-19T16:41:31.097Z,6.40
2017-11-19T16:44:04.774Z,6.40
2017-11-19T16:46:38.536Z,6.40
2017-11-19T16:49:12.307Z,6.40
2017-11-19T16:51:46.077Z,6.30
2017-11-19T16:54:20.847Z,6.30
2017-11-19T16:56:54.611Z,6.30
2017-11-19T16:59:35.869Z,6.30
2017-11-19T17:02:21.129Z,6.30
2017-11-19T17:04:56.394Z,6.20
2017-11-19T17:07:31.498Z,6.20
2017-11-19T17:10:09.147Z,6.20
2017-11-19T17:12:47.451Z,6.20
2017-11-19T17:15:21.171Z,6.20
2017-11-19T17:17:54.855Z,6.20
2017-11-19T17:20:41.050Z,6.20
2017-11-19T17:26:00.141Z,6.20
2017-11-19T17:28:44.597Z,6.20
2017-11-19T17:31:20.586Z,6.10
2017-11-19T17:36:38.923Z,6.00
2017-11-19T17:39:13.119Z,6.00
2017-11-19T17:41:49.524Z,5.90
2017-11-19T17:44:26.048Z,5.90
2017-11-19T17:47:00.608Z,5.90
2017-11-19T17:49:41.889Z,5.80
2017-11-19T17:55:02.642Z,5.70
2017-11-19T17:57:36.441Z,5.60
2017-11-19T18:00:10.319Z,5.60
2017-11-19T18:02:46.083Z,5.60
2017-11-19T18:05:19.958Z,5.50
2017-11-19T18:07:54.508Z,5.50
2017-11-19T18:10:28.263Z,5.50
2017-11-19T18:13:02.067Z,5.40
2017-11-19T18:15:36.602Z,5.40
2017-11-19T18:18:10.290Z,5.40
2017-11-19T18:20:44.836Z,5.40
2017-11-19T18:23:19.547Z,5.30
2017-11-19T18:25:54.505Z,5.40
2017-11-19T18:28:29.205Z,5.40
2017-11-19T18:31:08.683Z,5.40
2017-11-19T18:33:43.397Z,5.30
2017-11-19T18:39:22.571Z,5.20
2017-11-19T18:42:07.932Z,5.10
2017-11-19T19:01:18.913Z,5.10
2017-11-19T19:09:21.954Z,5.20
2017-11-19T19:34:54.861Z,5.00
2017-11-19T19:42:56.663Z,5.00
2017-11-19T19:59:41.806Z,5.10
2017-11-19T20:02:15.480Z,5.10
2017-11-19T20:04:55.040Z,5.10
2017-11-19T20:13:06.216Z,5.10
2017-11-19T20:23:46.025Z,5.10
2017-11-19T20:29:03.276Z,5.10
2017-11-19T20:31:38.606Z,5.10
2017-11-19T20:34:16.007Z,5.00
2017-11-19T20:45:08.525Z,5.00
2017-11-19T20:53:24.291Z,5.00
2017-11-19T21:01:26.175Z,4.90
2017-11-19T21:09:27.083Z,5.00
2017-11-19T21:25:39.395Z,5.00
2017-11-19T21:28:13.281Z,5.00
2017-11-19T21:30:47.275Z,5.00
2017-11-19T21:33:22.767Z,5.00
2017-11-19T21:35:58.142Z,4.90
2017-11-19T21:38:34.901Z,4.90
2017-11-19T21:41:14.339Z,4.80
2017-11-19T21:46:30.043Z,4.80
2017-11-19T21:49:04.518Z,4.80
2017-11-19T21:51:41.156Z,4.70
2017-11-19T21:54:16.107Z,4.70
2017-11-19T21:56:49.969Z,4.70
2017-11-19T21:59:25.964Z,4.70
2017-11-19T22:02:00.910Z,4.70
2017-11-19T22:04:34.794Z,4.70
2017-11-19T22:07:09.231Z,4.70
2017-11-19T22:09:42.984Z,4.80
2017-11-19T22:12:16.691Z,4.80
2017-11-19T22:14:50.499Z,4.80
2017-11-19T22:17:24.299Z,4.70
2017-11-19T22:19:58.001Z,4.70
2017-11-19T22:22:32.246Z,4.70
2017-11-19T22:25:06.006Z,4.70
2017-11-19T22:27:41.266Z,4.60
2017-11-19T22:30:16.649Z,4.60
2017-11-19T22:32:51.071Z,4.60
2017-11-19T22:35:25.510Z,4.60
2017-11-19T22:37:59.352Z,4.60
2017-11-19T22:40:33.007Z,4.60
2017-11-19T22:43:06.774Z,4.60
2017-11-19T22:45:40.457Z,4.70
2017-11-19T22:48:14.142Z,4.70
2017-11-19T22:50:48.245Z,4.70
2017-11-19T22:53:21.977Z,4.70
2017-11-19T22:55:55.738Z,4.70
2017-11-19T22:58:30.430Z,4.70
2017-11-19T23:01:04.220Z,4.70
2017-11-19T23:03:38.027Z,4.70
2017-11-19T23:06:12.035Z,4.70
2017-11-19T23:08:45.844Z,4.70
2017-11-19T23:11:19.604Z,4.70
2017-11-19T23:13:53.274Z,4.70
2017-11-19T23:16:27.341Z,4.60
2017-11-19T23:19:01.781Z,4.60
2017-11-19T23:21:35.578Z,4.60
2017-11-19T23:24:09.369Z,4.60
2017-11-19T23:26:44.668Z,4.60
2017-11-19T23:29:18.467Z,4.60
2017-11-19T23:31:52.505Z,4.50
2017-11-19T23:34:26.287Z,4.50
2017-11-19T23:36:59.965Z,4.50
2017-11-19T23:39:34.283Z,4.50
2017-11-19T23:42:08.105Z,4.40
2017-11-19T23:44:46.335Z,4.30
2017-11-19T23:47:20.835Z,4.30
2017-11-19T23:49:54.739Z,4.30
2017-11-19T23:52:28.447Z,4.30
2017-11-19T23:55:02.309Z,4.30
2017-11-19T23:57:39.406Z,4.30
